Date,TemperatureHighF,TemperatureAvgF,TemperatureLowF,DewpointHighF,DewpointAvgF,DewpointLowF,HumidityHigh,HumidityAvg,HumidityLow,PressureMaxIn,PressureMinIn,WindSpeedMaxMPH,WindSpeedAvgMPH,GustSpeedMaxMPH,PrecipitationSumIn
2013-7-1,90.8,78.4,65.9,72.0,68.4,64.0,96,73,49,29.94,29.82,5,0,0,0.00
2013-7-2,91.9,78.2,66.0,75.0,69.1,65.0,96,75,47,30.01,29.92,4,0,0,0.00
2013-7-3,93.6,77.2,66.1,74.0,69.0,64.0,94,78,42,30.04,29.95,12,1,0,0.00
2013-7-4,92.8,79.9,67.7,76.0,71.6,67.0,97,78,52,29.98,29.91,7,1,0,0.00
2013-7-5,90.3,78.1,70.9,78.0,73.2,69.0,95,85,66,30.00,29.95,8,1,0,0.02
2013-7-6,89.6,78.1,70.0,77.0,73.0,69.0,97,85,63,30.01,29.94,7,1,0,0.00
2013-7-7,94.7,80.3,74.3,79.0,75.5,73.0,96,86,61,30.09,29.98,3,0,0,0.02
2013-7-8,95.9,80.3,72.0,80.0,74.3,71.0,97,84,56,30.16,30.06,4,0,0,0.00
2013-7-9,96.5,83.6,71.4,79.0,75.2,70.0,97,78,55,30.19,30.07,2,0,0,0.01
2013-7-10,97.6,85.7,74.7,80.0,76.4,73.0,96,76,50,30.11,29.96,6,0,0,0.00
2013-7-11,94.9,79.7,72.5,80.0,75.1,71.0,95,87,61,30.01,29.92,5,1,0,0.00
2013-7-12,98.9,82.1,71.1,80.0,73.0,70.0,97,77,45,29.96,29.86,5,1,0,0.01
2013-7-13,95.9,82.2,69.5,74.0,70.0,66.0,92,69,40,29.95,29.88,4,0,0,0.00
2013-7-14,92.7,75.7,68.1,77.0,71.1,65.0,95,87,57,30.01,29.90,6,1,0,0.80
2013-7-15,88.9,76.6,72.1,78.0,73.6,71.0,97,90,68,30.12,29.99,8,1,0,0.13
2013-7-16,88.0,78.5,72.7,78.0,74.6,72.0,97,88,68,30.17,30.09,11,2,0,0.01
2013-7-17,95.3,85.9,76.1,77.0,75.1,74.0,95,72,52,30.18,30.11,11,1,0,0.00
2013-7-18,93.5,80.3,72.0,79.0,73.7,71.0,97,82,59,30.16,30.01,7,0,0,0.01
2013-7-19,92.9,79.4,70.9,79.0,73.8,69.0,96,84,60,30.08,29.95,4,0,0,0.04
2013-7-20,96.4,80.3,70.6,79.0,73.6,70.0,97,82,47,30.00,29.92,11,0,0,0.00
2013-7-21,90.6,79.8,73.1,79.0,75.0,72.0,97,86,67,30.07,29.98,4,0,0,0.32
2013-7-22,93.7,81.1,74.7,82.0,77.1,73.0,97,88,62,30.06,29.99,4,0,0,0.26
2013-7-23,96.2,84.4,75.7,81.0,77.4,74.0,97,81,57,30.07,29.92,8,1,0,0.00
2013-7-24,95.2,83.6,73.9,79.0,76.3,72.0,96,80,57,29.99,29.88,11,1,0,0.06
2013-7-25,95.2,82.5,73.3,79.0,75.0,72.0,96,80,57,30.05,29.93,8,0,0,0.01
2013-7-26,95.9,81.3,68.9,79.0,73.4,68.0,96,79,52,30.08,29.95,4,0,0,0.04
2013-7-27,84.4,78.0,74.5,80.0,76.3,73.0,97,94,82,29.97,29.86,4,0,0,0.97
2013-7-28,94.6,81.4,72.1,80.0,74.6,71.0,97,81,54,30.01,29.90,3,0,0,0.00
2013-7-29,96.5,83.5,72.1,82.0,76.2,71.0,97,80,53,30.10,30.01,2,0,0,0.00
2013-7-30,96.7,84.8,75.0,80.0,77.6,74.0,96,81,57,30.16,30.05,3,0,0,0.00
2013-7-31,96.7,84.9,75.7,81.0,77.3,74.0,96,80,56,30.11,29.96,6,0,0,0.00